Airfield :
LOGIN :

Register | Disclaimer

   EN    FR    IT 

 










Legend :    VFR   Marginal VFR   IFR   Intensive IFR   Very Intensive IFR
Visi :
Ceiling :
>= 8 km
>= 3000ft
5 to 8 km
1000 to 3000 ft
1500m to 5 km
500 to 1000 ft
800 to 1500m
200 to 500 ft
< 800m
< 200 ft
Symbols :   Thunderstorms  Fog  Heavy snow  Heavy precipitations  Wind > 20 kt
SIGMETs :     Misc.  Thunderstorms  Icing  Turbulence  Mountain Waves  Volcanic Ashes






- Airport Elevation : 1475 ft


LSZC - Buochs Stans

CURRENT METAR :
  • 032020Z AUTO VRB02KT 9999 RA BKN045 13/11 Q1014

EXPIRED METARs :
  • 031950Z AUTO 23005KT 180V300 9999 -RA BKN046 14/10 Q1014
  • 031920Z AUTO VRB02KT 9999 -RA FEW010 BKN055 13/12 Q1014
  • 031850Z AUTO VRB02KT 9999 RA SCT050 BKN060 14/12 Q1014
  • 031820Z AUTO VRB02KT 6000 RA FEW036 SCT043 BKN050 14/13 Q1013
  • 031750Z AUTO 25005KT 220V310 9999 RA FEW034 BKN038 OVC042 14/13 Q1013

TAF TAF LSZC
Valid from the 03 at 15:00 until the 04 at 00:00 UTC


031425Z 0315/0324 03002KT 9999 FEW010 BKN070
TEMPO 0315/0324 RA
PROB40
TEMPO 0315/0324 4000 +RA BKN013



MET'MAP, your aeronautical weather chart ! - Copyright ORBIFLY December 2007 - Disclaimer

ORBIFLY MET'MAP TEAM :

Programming & Development : Alexandra Zaïnal
Concept & original design : Baudouin d'Aumeries
Assistance for programming : Marc-Olivier Méhu
Technical & hardware support : Manuel Goepfert

Contact : metmap@orbifly.com




SOURCES & CREDITS :

   NOAA